createdAt,value
2022-10-23T00:00:05.852Z,13.78
2022-10-23T00:03:08.866Z,13.88
2022-10-23T00:06:11.384Z,13.80
2022-10-23T00:09:16.934Z,13.96
2022-10-23T00:12:18.949Z,13.72
2022-10-23T00:15:22.573Z,13.85
2022-10-23T00:18:24.167Z,13.61
2022-10-23T00:21:26.468Z,13.70
2022-10-23T00:24:28.101Z,14.03
2022-10-23T00:27:29.752Z,14.18
2022-10-23T00:30:31.445Z,14.20
2022-10-23T00:33:33.403Z,14.16
2022-10-23T00:36:35.529Z,14.07
2022-10-23T00:39:37.177Z,14.05
2022-10-23T00:42:38.919Z,13.99
2022-10-23T00:45:40.946Z,14.03
2022-10-23T00:48:42.544Z,13.80
2022-10-23T00:51:51.252Z,13.77
2022-10-23T00:54:52.950Z,13.86
2022-10-23T00:57:54.986Z,13.96
2022-10-23T01:00:57.066Z,13.89
2022-10-23T01:03:58.966Z,13.65
2022-10-23T01:07:20.349Z,13.82
2022-10-23T01:10:45.084Z,13.70
2022-10-23T01:17:19.744Z,13.70
2022-10-23T01:20:39.248Z,13.62
2022-10-23T01:24:00.515Z,13.57
2022-10-23T01:27:14.905Z,13.51
2022-10-23T01:30:18.007Z,13.57
2022-10-23T01:33:34.035Z,13.82
2022-10-23T01:36:39.689Z,13.98
2022-10-23T01:39:47.667Z,13.76
2022-10-23T01:42:55.030Z,13.83
2022-10-23T01:46:05.697Z,13.77
2022-10-23T01:49:14.650Z,13.83
2022-10-23T01:52:19.991Z,13.59
2022-10-23T01:55:25.339Z,13.96
2022-10-23T01:58:29.729Z,14.05
2022-10-23T02:01:33.261Z,14.10
2022-10-23T02:04:40.743Z,14.06
2022-10-23T02:07:43.255Z,13.97
2022-10-23T02:10:53.866Z,13.87
2022-10-23T02:14:24.346Z,13.83
2022-10-23T02:17:55.224Z,13.74
2022-10-23T02:21:12.168Z,13.69
2022-10-23T02:24:18.245Z,13.62
2022-10-23T02:27:39.962Z,13.53
2022-10-23T02:30:46.104Z,13.47
2022-10-23T02:33:48.214Z,13.35
2022-10-23T02:36:50.040Z,13.30
2022-10-23T02:39:55.042Z,13.26
2022-10-23T02:43:32.279Z,13.31
2022-10-23T02:46:52.859Z,13.30
2022-10-23T02:50:28.430Z,13.30
2022-10-23T02:53:36.609Z,13.34
2022-10-23T02:57:04.025Z,13.31
2022-10-23T03:00:08.499Z,13.43
2022-10-23T03:03:14.784Z,13.46
2022-10-23T03:06:16.979Z,13.51
2022-10-23T03:09:18.779Z,13.55
2022-10-23T03:12:20.474Z,13.61
2022-10-23T03:15:22.402Z,13.59
2022-10-23T03:18:25.690Z,13.56
2022-10-23T03:21:27.475Z,13.45
2022-10-23T03:24:29.137Z,13.34
2022-10-23T03:27:31.945Z,13.32
2022-10-23T03:30:37.696Z,13.26
2022-10-23T03:33:39.981Z,13.23
2022-10-23T03:36:46.735Z,13.21
2022-10-23T03:39:49.422Z,13.22
2022-10-23T03:42:51.184Z,13.20
2022-10-23T03:45:56.323Z,13.26
2022-10-23T03:49:00.531Z,13.46
2022-10-23T03:52:02.296Z,13.41
2022-10-23T03:55:04.527Z,13.42
2022-10-23T03:58:06.341Z,13.37
2022-10-23T04:01:08.145Z,13.42
2022-10-23T04:04:11.967Z,13.47
2022-10-23T04:07:16.574Z,13.54
2022-10-23T04:10:18.300Z,13.47
2022-10-23T04:13:19.964Z,13.63
2022-10-23T04:16:22.250Z,13.71
2022-10-23T04:19:24.070Z,13.91
2022-10-23T04:22:28.292Z,14.18
2022-10-23T04:25:30.332Z,14.30
2022-10-23T04:28:31.972Z,14.33
2022-10-23T04:31:34.550Z,14.13
2022-10-23T04:34:36.338Z,13.91
2022-10-23T04:37:38.788Z,13.82
2022-10-23T04:40:41.815Z,13.76
2022-10-23T04:43:43.566Z,13.75
2022-10-23T04:46:48.952Z,13.72
2022-10-23T04:49:50.994Z,13.69
2022-10-23T04:52:57.864Z,13.68
2022-10-23T04:56:00.232Z,13.67
2022-10-23T04:59:12.043Z,13.65
2022-10-23T05:02:14.969Z,13.66
2022-10-23T05:05:17.619Z,13.64
2022-10-23T05:08:31.610Z,13.55
2022-10-23T05:11:48.977Z,13.61
2022-10-23T05:14:50.952Z,13.53
2022-10-23T05:17:57.952Z,13.51
2022-10-23T05:21:05.364Z,13.36
2022-10-23T05:24:07.497Z,13.37
2022-10-23T05:27:09.817Z,13.37
2022-10-23T05:30:14.974Z,13.27
2022-10-23T05:33:17.508Z,13.22
2022-10-23T05:36:19.436Z,13.19
2022-10-23T05:39:25.020Z,13.14
2022-10-23T05:42:27.968Z,13.08
2022-10-23T05:45:32.151Z,13.23
2022-10-23T05:48:56.863Z,13.13
2022-10-23T05:52:20.381Z,12.99
2022-10-23T05:55:41.203Z,12.90
2022-10-23T05:58:51.569Z,12.86
2022-10-23T06:02:11.731Z,12.81
2022-10-23T06:05:24.567Z,12.86
2022-10-23T06:08:45.051Z,12.94
2022-10-23T06:11:47.657Z,13.19
2022-10-23T06:14:54.773Z,13.15
2022-10-23T06:18:04.959Z,13.13
2022-10-23T06:21:10.508Z,13.22
2022-10-23T06:24:12.222Z,12.99
2022-10-23T06:27:36.690Z,12.88
2022-10-23T06:30:40.263Z,13.15
2022-10-23T06:33:42.486Z,13.32
2022-10-23T06:36:45.183Z,13.50
2022-10-23T06:40:10.609Z,13.47
2022-10-23T06:43:30.214Z,13.63
2022-10-23T06:46:51.601Z,13.70
2022-10-23T06:50:22.550Z,13.74
2022-10-23T06:53:24.933Z,13.65
2022-10-23T06:56:35.259Z,13.60
2022-10-23T06:59:40.525Z,13.53
2022-10-23T07:02:43.893Z,13.76
2022-10-23T07:05:47.367Z,13.48
2022-10-23T07:08:49.998Z,13.51
2022-10-23T07:12:17.739Z,13.46
2022-10-23T07:15:26.596Z,13.36
2022-10-23T07:18:28.926Z,13.50
2022-10-23T07:22:02.792Z,13.86
2022-10-23T07:25:30.665Z,14.25
2022-10-23T07:28:35.592Z,14.39
2022-10-23T07:31:37.846Z,14.59
2022-10-23T07:34:58.351Z,14.67
2022-10-23T07:38:06.180Z,14.92
2022-10-23T07:41:12.599Z,14.67
2022-10-23T07:44:15.550Z,14.49
2022-10-23T07:47:17.816Z,14.58
2022-10-23T07:50:23.813Z,14.47
2022-10-23T07:53:25.732Z,14.40
2022-10-23T07:56:32.698Z,14.80
2022-10-23T07:59:50.883Z,15.26
2022-10-23T08:02:56.069Z,15.19
2022-10-23T08:06:00.263Z,15.45
2022-10-23T08:09:06.268Z,15.66
2022-10-23T08:12:10.624Z,15.85
2022-10-23T08:15:13.151Z,16.00
2022-10-23T08:18:26.985Z,16.04
2022-10-23T08:21:31.464Z,16.37
2022-10-23T08:24:33.201Z,16.58
2022-10-23T08:27:34.904Z,16.77
2022-10-23T08:30:37.505Z,16.94
2022-10-23T08:33:39.742Z,17.14
2022-10-23T08:36:42.310Z,17.25
2022-10-23T08:39:44.096Z,17.36
2022-10-23T08:43:01.299Z,17.56
2022-10-23T08:46:09.561Z,17.80
2022-10-23T08:49:54.693Z,17.99
2022-10-23T08:53:07.031Z,18.09
2022-10-23T08:56:22.864Z,18.18
2022-10-23T08:59:33.264Z,18.23
2022-10-23T09:02:55.253Z,18.57
2022-10-23T09:06:11.999Z,18.61
2022-10-23T09:09:52.846Z,18.88
2022-10-23T09:13:01.743Z,18.82
2022-10-23T09:16:14.466Z,19.08
2022-10-23T09:19:27.255Z,19.07
2022-10-23T09:22:29.253Z,18.99
2022-10-23T09:25:37.118Z,18.90
2022-10-23T09:28:46.338Z,18.45
2022-10-23T09:31:53.253Z,17.96
2022-10-23T09:34:55.592Z,18.24
2022-10-23T09:37:58.181Z,18.43
2022-10-23T09:41:13.303Z,18.59
2022-10-23T09:44:30.619Z,18.73
2022-10-23T09:47:32.780Z,18.84
2022-10-23T09:50:34.433Z,19.27
2022-10-23T09:53:48.142Z,19.33
2022-10-23T09:56:50.216Z,19.17
2022-10-23T09:59:54.495Z,19.23
2022-10-23T10:03:03.307Z,19.23
2022-10-23T10:06:32.458Z,19.17
2022-10-23T10:09:34.440Z,18.99
2022-10-23T10:12:37.761Z,19.17
2022-10-23T10:15:55.552Z,18.98
2022-10-23T10:19:11.379Z,19.05
2022-10-23T10:22:31.998Z,19.10
2022-10-23T10:25:51.293Z,19.11
2022-10-23T10:30:04.954Z,18.89
2022-10-23T10:33:41.987Z,18.73
2022-10-23T10:36:46.622Z,18.77
2022-10-23T10:39:57.550Z,19.10
2022-10-23T10:43:28.588Z,19.32
2022-10-23T10:46:33.143Z,19.48
2022-10-23T10:49:55.483Z,19.58
2022-10-23T10:53:17.495Z,19.39
2022-10-23T10:56:22.567Z,19.23
2022-10-23T10:59:29.537Z,19.36
2022-10-23T11:02:49.756Z,19.43
2022-10-23T11:05:53.574Z,19.81
2022-10-23T11:09:03.975Z,19.92
2022-10-23T11:12:26.730Z,20.16
2022-10-23T11:15:37.026Z,19.96
2022-10-23T11:18:46.476Z,19.99
2022-10-23T11:22:03.217Z,19.91
2022-10-23T11:25:20.497Z,19.86
2022-10-23T11:28:43.742Z,19.55
2022-10-23T11:32:08.740Z,19.61
2022-10-23T11:35:48.068Z,19.70
2022-10-23T11:38:51.122Z,19.85
2022-10-23T11:42:20.894Z,19.76
2022-10-23T11:45:36.494Z,19.64
2022-10-23T11:48:41.167Z,19.59
2022-10-23T11:51:42.838Z,19.46
2022-10-23T11:54:44.439Z,19.31
2022-10-23T11:58:08.138Z,19.53
2022-10-23T12:01:42.730Z,19.62
2022-10-23T12:04:51.920Z,19.77
2022-10-23T12:08:00.079Z,20.01
2022-10-23T12:11:01.915Z,20.05
2022-10-23T12:14:03.594Z,19.97
2022-10-23T12:17:23.742Z,20.26
2022-10-23T12:20:38.202Z,20.37
2022-10-23T12:24:03.661Z,20.55
2022-10-23T12:27:20.294Z,20.98
2022-10-23T12:30:34.187Z,21.46
2022-10-23T12:33:46.876Z,21.44
2022-10-23T12:37:22.522Z,21.11
2022-10-23T12:40:29.862Z,20.97
2022-10-23T12:43:34.499Z,20.85
2022-10-23T12:46:40.416Z,20.71
2022-10-23T12:49:49.382Z,20.60
2022-10-23T12:53:03.117Z,20.79
2022-10-23T12:56:06.761Z,20.80
2022-10-23T12:59:16.586Z,20.82
2022-10-23T13:02:29.204Z,20.97
2022-10-23T13:05:32.298Z,20.90
2022-10-23T13:08:40.317Z,20.96
2022-10-23T13:12:29.205Z,20.91
2022-10-23T13:15:39.112Z,20.75
2022-10-23T13:18:41.960Z,20.85
2022-10-23T13:21:46.518Z,20.89
2022-10-23T13:24:48.456Z,20.77
2022-10-23T13:27:50.368Z,20.74
2022-10-23T13:31:24.866Z,20.85
2022-10-23T13:34:29.168Z,21.04
2022-10-23T13:37:32.018Z,21.12
2022-10-23T13:40:33.825Z,21.03
2022-10-23T13:43:35.451Z,21.17
2022-10-23T13:46:37.090Z,21.29
2022-10-23T13:49:38.783Z,21.08
2022-10-23T13:52:40.389Z,20.65
2022-10-23T13:55:44.613Z,20.87
2022-10-23T13:58:46.662Z,20.53
2022-10-23T14:01:49.795Z,20.62
2022-10-23T14:04:52.442Z,20.53
2022-10-23T14:07:54.065Z,20.44
2022-10-23T14:10:55.729Z,20.26
2022-10-23T14:13:57.428Z,20.04
2022-10-23T14:16:59.123Z,19.95
2022-10-23T14:20:02.170Z,19.98
2022-10-23T14:23:05.673Z,19.90
2022-10-23T14:26:10.280Z,19.50
2022-10-23T14:29:22.947Z,19.77
2022-10-23T14:32:25.650Z,20.01
2022-10-23T14:35:27.325Z,19.76
2022-10-23T14:38:29.486Z,19.70
2022-10-23T14:41:31.138Z,19.64
2022-10-23T14:44:32.973Z,19.55
2022-10-23T14:47:34.683Z,19.51
2022-10-23T14:50:42.246Z,19.73
2022-10-23T14:53:43.931Z,20.15
2022-10-23T14:56:45.585Z,19.88
2022-10-23T14:59:48.395Z,19.49
2022-10-23T15:02:50.061Z,19.39
2022-10-23T15:05:52.157Z,19.50
2022-10-23T15:08:57.227Z,19.48
2022-10-23T15:11:58.868Z,19.45
2022-10-23T15:15:00.529Z,19.14
2022-10-23T15:18:02.146Z,19.10
2022-10-23T15:21:08.620Z,19.23
2022-10-23T15:24:10.299Z,19.18
2022-10-23T15:27:11.954Z,19.35
2022-10-23T15:30:13.730Z,19.19
2022-10-23T15:33:19.175Z,19.10
2022-10-23T15:36:21.668Z,18.97
2022-10-23T15:39:29.122Z,18.74
2022-10-23T15:42:30.863Z,18.67
2022-10-23T15:45:32.954Z,18.61
2022-10-23T15:48:34.565Z,18.46
2022-10-23T15:51:37.147Z,18.39
2022-10-23T15:54:38.816Z,18.35
2022-10-23T15:57:41.112Z,18.11
2022-10-23T16:00:42.781Z,18.11
2022-10-23T16:03:44.815Z,18.19
2022-10-23T16:06:47.181Z,18.11
2022-10-23T16:09:48.978Z,17.97
2022-10-23T16:12:51.165Z,17.69
2022-10-23T16:15:54.105Z,17.75
2022-10-23T16:18:58.261Z,17.65
2022-10-23T16:21:59.896Z,17.58
2022-10-23T16:25:01.701Z,17.57
2022-10-23T16:28:04.045Z,18.60
2022-10-23T16:31:19.981Z,19.49
2022-10-23T16:34:22.763Z,19.64
2022-10-23T16:37:24.485Z,19.10
2022-10-23T16:40:30.819Z,19.00
2022-10-23T16:43:50.827Z,20.16
2022-10-23T16:47:11.150Z,21.82
2022-10-23T16:50:12.825Z,22.30
2022-10-23T16:53:14.416Z,22.18
2022-10-23T16:56:18.971Z,21.97
2022-10-23T16:59:20.742Z,21.95
2022-10-23T17:02:22.540Z,22.18
2022-10-23T17:05:24.490Z,22.36
2022-10-23T17:08:26.095Z,22.55
2022-10-23T17:11:30.828Z,22.19
2022-10-23T17:14:32.643Z,22.30
2022-10-23T17:17:34.250Z,22.29
2022-10-23T17:20:35.897Z,22.23
2022-10-23T17:23:37.530Z,22.00
2022-10-23T17:26:40.922Z,21.84
2022-10-23T17:29:42.507Z,21.74
2022-10-23T17:32:44.409Z,21.50
2022-10-23T17:35:46.459Z,21.28
2022-10-23T17:38:48.303Z,21.18
2022-10-23T17:41:50.274Z,20.51
2022-10-23T17:44:51.890Z,20.30
2022-10-23T17:47:53.679Z,19.93
2022-10-23T17:51:04.050Z,19.77
2022-10-23T17:54:08.477Z,19.67
2022-10-23T17:57:10.300Z,19.47
2022-10-23T18:00:12.426Z,19.42
2022-10-23T18:03:17.737Z,19.42
2022-10-23T18:06:29.582Z,19.34
2022-10-23T18:09:31.561Z,19.25
2022-10-23T18:12:33.386Z,19.32
2022-10-23T18:15:35.883Z,18.98
2022-10-23T18:18:39.187Z,18.79
2022-10-23T18:21:41.101Z,18.71
2022-10-23T18:24:42.822Z,18.69
2022-10-23T18:27:44.864Z,18.68
2022-10-23T18:30:48.127Z,18.53
2022-10-23T18:33:50.160Z,18.42
2022-10-23T18:36:53.853Z,18.73
2022-10-23T18:39:55.529Z,18.53
2022-10-23T18:42:57.261Z,18.67
2022-10-23T18:45:58.913Z,18.55
2022-10-23T18:49:00.908Z,18.57
2022-10-23T18:52:03.392Z,18.58
2022-10-23T18:55:07.521Z,18.38
2022-10-23T18:58:09.241Z,18.52
2022-10-23T19:01:11.073Z,18.56
2022-10-23T19:04:15.877Z,18.97
2022-10-23T19:07:17.978Z,19.09
2022-10-23T19:10:21.884Z,19.23
2022-10-23T19:13:23.583Z,19.04
2022-10-23T19:16:33.593Z,18.85
2022-10-23T19:19:43.534Z,19.10
2022-10-23T19:22:48.573Z,19.35
2022-10-23T19:25:50.363Z,19.47
2022-10-23T19:31:54.926Z,20.05
2022-10-23T19:34:56.694Z,20.24
2022-10-23T19:37:58.405Z,20.72
2022-10-23T19:41:00.032Z,20.88
2022-10-23T19:44:02.036Z,21.01
2022-10-23T19:47:04.149Z,21.12
2022-10-23T19:50:06.965Z,21.50
2022-10-23T19:53:08.817Z,21.45
2022-10-23T19:56:11.881Z,21.51
2022-10-23T19:59:13.762Z,21.31
2022-10-23T20:02:15.946Z,21.46
2022-10-23T20:05:18.219Z,21.95
2022-10-23T20:08:20.010Z,21.88
2022-10-23T20:11:30.620Z,21.73
2022-10-23T20:14:32.749Z,21.76
2022-10-23T20:17:34.478Z,21.68
2022-10-23T20:20:41.275Z,21.56
2022-10-23T20:23:44.086Z,21.82
2022-10-23T20:26:51.299Z,21.75
2022-10-23T20:29:53.045Z,21.97
2022-10-23T20:32:54.722Z,21.96
2022-10-23T20:39:07.009Z,22.22
2022-10-23T20:42:08.736Z,22.38
2022-10-23T20:45:10.783Z,22.08
2022-10-23T20:48:12.489Z,22.18
2022-10-23T20:51:16.761Z,22.10
2022-10-23T20:54:18.424Z,22.07
2022-10-23T20:57:21.317Z,22.00
2022-10-23T21:00:23.421Z,21.92
2022-10-23T21:03:25.123Z,21.77
2022-10-23T21:06:33.967Z,21.90
2022-10-23T21:09:42.638Z,21.84
2022-10-23T21:12:44.501Z,21.96
2022-10-23T21:15:46.301Z,22.02
2022-10-23T21:18:48.365Z,21.96
2022-10-23T21:21:50.106Z,21.93
2022-10-23T21:24:51.742Z,22.02
2022-10-23T21:27:53.345Z,21.93
2022-10-23T21:30:55.044Z,21.90
2022-10-23T21:33:56.672Z,21.99
2022-10-23T21:37:14.679Z,21.89
2022-10-23T21:40:16.787Z,21.92
2022-10-23T21:43:18.613Z,21.94
2022-10-23T21:46:21.052Z,21.92
2022-10-23T21:49:22.676Z,21.94
2022-10-23T21:52:24.301Z,21.76
2022-10-23T21:55:27.874Z,21.75
2022-10-23T21:58:29.578Z,21.77
2022-10-23T22:01:31.290Z,21.59
2022-10-23T22:04:33.140Z,21.67
2022-10-23T22:07:34.901Z,21.93
2022-10-23T22:10:36.661Z,21.76
2022-10-23T22:13:38.341Z,21.90
2022-10-23T22:16:42.065Z,21.77
2022-10-23T22:19:43.956Z,21.87
2022-10-23T22:22:45.597Z,21.67
2022-10-23T22:25:47.309Z,21.73
2022-10-23T22:28:50.282Z,21.59
2022-10-23T22:31:52.612Z,21.74
2022-10-23T22:34:54.307Z,21.64
2022-10-23T22:37:55.908Z,21.51
2022-10-23T22:41:00.133Z,21.34
2022-10-23T22:44:01.826Z,21.51
2022-10-23T22:47:03.712Z,21.41
2022-10-23T22:50:05.870Z,21.68
2022-10-23T22:53:07.541Z,21.37
2022-10-23T22:56:15.438Z,21.36
2022-10-23T22:59:17.204Z,21.50
2022-10-23T23:02:18.986Z,21.40
2022-10-23T23:05:20.721Z,21.44
2022-10-23T23:08:22.442Z,21.43
2022-10-23T23:11:24.161Z,21.44
2022-10-23T23:14:25.776Z,21.49
2022-10-23T23:17:27.464Z,21.61
2022-10-23T23:20:29.125Z,21.40
2022-10-23T23:23:31.054Z,21.45
2022-10-23T23:26:32.750Z,21.36
2022-10-23T23:29:34.442Z,21.24
2022-10-23T23:32:36.350Z,21.10
2022-10-23T23:35:43.111Z,21.23
2022-10-23T23:38:44.758Z,21.17
2022-10-23T23:41:46.398Z,21.22
2022-10-23T23:44:56.011Z,21.02
2022-10-23T23:48:09.744Z,21.08
2022-10-23T23:51:11.362Z,21.14
2022-10-23T23:54:13.082Z,21.00
2022-10-23T23:57:14.736Z,20.86
